sensor_id;sensor_type;location;lat;lon;timestamp;P1;durP1;ratioP1;P2;durP2;ratioP2
65558;SDS011;52203;51.998;5.140;2024-02-21T00:01:42;2.05;;;1.15;;
65558;SDS011;52203;51.998;5.140;2024-02-21T00:04:07;3.53;;;1.17;;
65558;SDS011;52203;51.998;5.140;2024-02-21T00:06:33;3.88;;;1.20;;
65558;SDS011;52203;51.998;5.140;2024-02-21T00:08:58;3.15;;;1.52;;
65558;SDS011;52203;51.998;5.140;2024-02-21T00:11:24;3.20;;;1.30;;
65558;SDS011;52203;51.998;5.140;2024-02-21T00:13:50;4.07;;;1.48;;
65558;SDS011;52203;51.998;5.140;2024-02-21T00:16:16;3.25;;;1.38;;
65558;SDS011;52203;51.998;5.140;2024-02-21T00:18:42;4.18;;;1.52;;
65558;SDS011;52203;51.998;5.140;2024-02-21T00:21:08;4.88;;;1.52;;
65558;SDS011;52203;51.998;5.140;2024-02-21T00:23:34;3.35;;;1.23;;
65558;SDS011;52203;51.998;5.140;2024-02-21T00:25:59;3.25;;;1.10;;
65558;SDS011;52203;51.998;5.140;2024-02-21T00:28:25;5.10;;;1.50;;
65558;SDS011;52203;51.998;5.140;2024-02-21T00:30:50;4.68;;;1.40;;
65558;SDS011;52203;51.998;5.140;2024-02-21T00:33:18;4.32;;;1.30;;
65558;SDS011;52203;51.998;5.140;2024-02-21T00:35:43;2.83;;;1.10;;
65558;SDS011;52203;51.998;5.140;2024-02-21T00:38:12;2.88;;;1.30;;
65558;SDS011;52203;51.998;5.140;2024-02-21T00:40:37;2.58;;;1.20;;
65558;SDS011;52203;51.998;5.140;2024-02-21T00:43:03;2.25;;;1.10;;
65558;SDS011;52203;51.998;5.140;2024-02-21T00:45:28;2.58;;;1.20;;
65558;SDS011;52203;51.998;5.140;2024-02-21T00:47:54;2.75;;;1.10;;
65558;SDS011;52203;51.998;5.140;2024-02-21T00:50:19;2.47;;;1.20;;
65558;SDS011;52203;51.998;5.140;2024-02-21T00:52:48;2.10;;;1.23;;
65558;SDS011;52203;51.998;5.140;2024-02-21T00:55:13;2.95;;;1.10;;
65558;SDS011;52203;51.998;5.140;2024-02-21T00:57:39;2.67;;;1.45;;
65558;SDS011;52203;51.998;5.140;2024-02-21T01:00:05;3.80;;;1.23;;
65558;SDS011;52203;51.998;5.140;2024-02-21T01:02:32;3.55;;;1.10;;
65558;SDS011;52203;51.998;5.140;2024-02-21T01:04:57;4.30;;;1.15;;
65558;SDS011;52203;51.998;5.140;2024-02-21T01:07:25;4.57;;;1.40;;
65558;SDS011;52203;51.998;5.140;2024-02-21T01:09:51;3.03;;;1.20;;
65558;SDS011;52203;51.998;5.140;2024-02-21T01:12:17;2.83;;;1.10;;
65558;SDS011;52203;51.998;5.140;2024-02-21T01:14:43;3.05;;;1.20;;
65558;SDS011;52203;51.998;5.140;2024-02-21T01:17:11;2.50;;;1.15;;
65558;SDS011;52203;51.998;5.140;2024-02-21T01:19:36;2.90;;;1.05;;
65558;SDS011;52203;51.998;5.140;2024-02-21T01:22:02;3.30;;;1.20;;
65558;SDS011;52203;51.998;5.140;2024-02-21T01:24:28;1.95;;;1.15;;
65558;SDS011;52203;51.998;5.140;2024-02-21T01:26:53;2.05;;;1.02;;
65558;SDS011;52203;51.998;5.140;2024-02-21T01:29:19;2.72;;;1.10;;
65558;SDS011;52203;51.998;5.140;2024-02-21T01:31:44;2.67;;;1.10;;
65558;SDS011;52203;51.998;5.140;2024-02-21T01:34:10;3.05;;;1.02;;
65558;SDS011;52203;51.998;5.140;2024-02-21T01:36:36;2.15;;;0.88;;
65558;SDS011;52203;51.998;5.140;2024-02-21T01:39:01;2.63;;;1.25;;
65558;SDS011;52203;51.998;5.140;2024-02-21T01:41:29;3.75;;;1.25;;
65558;SDS011;52203;51.998;5.140;2024-02-21T01:43:55;2.95;;;1.02;;
65558;SDS011;52203;51.998;5.140;2024-02-21T01:46:21;2.25;;;0.98;;
65558;SDS011;52203;51.998;5.140;2024-02-21T01:48:47;3.08;;;1.40;;
65558;SDS011;52203;51.998;5.140;2024-02-21T01:51:12;2.45;;;0.90;;
65558;SDS011;52203;51.998;5.140;2024-02-21T01:53:40;1.88;;;0.90;;
65558;SDS011;52203;51.998;5.140;2024-02-21T01:56:08;2.20;;;1.10;;
65558;SDS011;52203;51.998;5.140;2024-02-21T01:58:34;2.90;;;1.10;;
65558;SDS011;52203;51.998;5.140;2024-02-21T02:01:05;2.47;;;1.10;;
65558;SDS011;52203;51.998;5.140;2024-02-21T02:03:31;3.10;;;1.33;;
65558;SDS011;52203;51.998;5.140;2024-02-21T02:05:56;2.30;;;0.90;;
65558;SDS011;52203;51.998;5.140;2024-02-21T02:08:22;2.78;;;1.33;;
65558;SDS011;52203;51.998;5.140;2024-02-21T02:10:48;2.58;;;1.15;;
65558;SDS011;52203;51.998;5.140;2024-02-21T02:13:14;2.38;;;1.00;;
65558;SDS011;52203;51.998;5.140;2024-02-21T02:15:43;4.18;;;1.15;;
65558;SDS011;52203;51.998;5.140;2024-02-21T02:18:13;1.83;;;1.00;;
65558;SDS011;52203;51.998;5.140;2024-02-21T02:20:40;2.15;;;1.00;;
65558;SDS011;52203;51.998;5.140;2024-02-21T02:23:16;2.20;;;1.08;;
65558;SDS011;52203;51.998;5.140;2024-02-21T02:25:45;3.20;;;1.20;;
65558;SDS011;52203;51.998;5.140;2024-02-21T02:28:14;1.88;;;1.00;;
65558;SDS011;52203;51.998;5.140;2024-02-21T02:30:41;2.15;;;1.13;;
65558;SDS011;52203;51.998;5.140;2024-02-21T02:33:06;2.53;;;1.00;;
65558;SDS011;52203;51.998;5.140;2024-02-21T02:35:32;3.42;;;0.98;;
65558;SDS011;52203;51.998;5.140;2024-02-21T02:37:58;2.35;;;1.13;;
65558;SDS011;52203;51.998;5.140;2024-02-21T02:40:23;3.47;;;1.40;;
65558;SDS011;52203;51.998;5.140;2024-02-21T02:42:50;1.50;;;0.80;;
65558;SDS011;52203;51.998;5.140;2024-02-21T02:45:16;2.67;;;0.90;;
65558;SDS011;52203;51.998;5.140;2024-02-21T02:47:44;3.83;;;1.20;;
65558;SDS011;52203;51.998;5.140;2024-02-21T02:50:11;2.55;;;0.85;;
65558;SDS011;52203;51.998;5.140;2024-02-21T02:52:37;1.65;;;0.90;;
65558;SDS011;52203;51.998;5.140;2024-02-21T02:55:03;1.52;;;0.85;;
65558;SDS011;52203;51.998;5.140;2024-02-21T02:57:29;2.40;;;1.15;;
65558;SDS011;52203;51.998;5.140;2024-02-21T02:59:55;3.75;;;1.00;;
65558;SDS011;52203;51.998;5.140;2024-02-21T03:02:20;2.95;;;1.02;;
65558;SDS011;52203;51.998;5.140;2024-02-21T03:04:46;2.50;;;1.00;;
65558;SDS011;52203;51.998;5.140;2024-02-21T03:07:11;2.05;;;1.10;;
65558;SDS011;52203;51.998;5.140;2024-02-21T03:09:37;3.30;;;1.00;;
65558;SDS011;52203;51.998;5.140;2024-02-21T03:12:03;1.65;;;0.70;;
65558;SDS011;52203;51.998;5.140;2024-02-21T03:14:30;2.85;;;0.88;;
65558;SDS011;52203;51.998;5.140;2024-02-21T03:16:56;4.18;;;1.15;;
65558;SDS011;52203;51.998;5.140;2024-02-21T03:19:22;1.95;;;1.00;;
65558;SDS011;52203;51.998;5.140;2024-02-21T03:21:47;2.15;;;1.00;;
65558;SDS011;52203;51.998;5.140;2024-02-21T03:24:14;3.38;;;1.02;;
65558;SDS011;52203;51.998;5.140;2024-02-21T03:26:41;2.30;;;0.93;;
65558;SDS011;52203;51.998;5.140;2024-02-21T03:29:06;2.47;;;0.90;;
65558;SDS011;52203;51.998;5.140;2024-02-21T03:31:32;2.63;;;0.95;;
65558;SDS011;52203;51.998;5.140;2024-02-21T03:34:00;4.57;;;1.13;;
65558;SDS011;52203;51.998;5.140;2024-02-21T03:36:25;1.77;;;1.05;;
65558;SDS011;52203;51.998;5.140;2024-02-21T03:38:55;3.13;;;1.30;;
65558;SDS011;52203;51.998;5.140;2024-02-21T03:41:21;2.58;;;1.20;;
65558;SDS011;52203;51.998;5.140;2024-02-21T03:43:46;1.70;;;0.88;;
65558;SDS011;52203;51.998;5.140;2024-02-21T03:46:12;2.83;;;0.90;;
65558;SDS011;52203;51.998;5.140;2024-02-21T03:48:38;3.08;;;0.85;;
65558;SDS011;52203;51.998;5.140;2024-02-21T03:51:03;2.55;;;0.90;;
65558;SDS011;52203;51.998;5.140;2024-02-21T03:53:30;1.80;;;1.00;;
65558;SDS011;52203;51.998;5.140;2024-02-21T03:55:55;2.92;;;1.13;;
65558;SDS011;52203;51.998;5.140;2024-02-21T03:58:21;3.25;;;0.98;;
65558;SDS011;52203;51.998;5.140;2024-02-21T04:00:49;2.15;;;1.00;;
65558;SDS011;52203;51.998;5.140;2024-02-21T04:03:15;2.22;;;0.88;;
65558;SDS011;52203;51.998;5.140;2024-02-21T04:05:41;3.50;;;0.95;;
65558;SDS011;52203;51.998;5.140;2024-02-21T04:08:11;1.65;;;0.85;;
65558;SDS011;52203;51.998;5.140;2024-02-21T04:10:37;3.08;;;1.10;;
65558;SDS011;52203;51.998;5.140;2024-02-21T04:13:03;1.85;;;0.90;;
65558;SDS011;52203;51.998;5.140;2024-02-21T04:15:31;2.90;;;1.00;;
65558;SDS011;52203;51.998;5.140;2024-02-21T04:17:56;2.13;;;0.80;;
65558;SDS011;52203;51.998;5.140;2024-02-21T04:20:22;1.80;;;0.90;;
65558;SDS011;52203;51.998;5.140;2024-02-21T04:22:48;3.22;;;0.90;;
65558;SDS011;52203;51.998;5.140;2024-02-21T04:25:14;3.03;;;1.10;;
65558;SDS011;52203;51.998;5.140;2024-02-21T04:27:39;2.60;;;0.90;;
65558;SDS011;52203;51.998;5.140;2024-02-21T04:30:06;2.22;;;1.00;;
65558;SDS011;52203;51.998;5.140;2024-02-21T04:32:32;3.35;;;1.20;;
65558;SDS011;52203;51.998;5.140;2024-02-21T04:34:58;3.53;;;0.90;;
65558;SDS011;52203;51.998;5.140;2024-02-21T04:37:23;1.58;;;0.80;;
65558;SDS011;52203;51.998;5.140;2024-02-21T04:39:49;1.30;;;0.77;;
65558;SDS011;52203;51.998;5.140;2024-02-21T04:42:16;1.88;;;0.80;;
65558;SDS011;52203;51.998;5.140;2024-02-21T04:44:41;2.60;;;1.08;;
65558;SDS011;52203;51.998;5.140;2024-02-21T04:47:07;2.22;;;0.80;;
65558;SDS011;52203;51.998;5.140;2024-02-21T04:49:33;1.52;;;0.85;;
65558;SDS011;52203;51.998;5.140;2024-02-21T04:51:59;2.08;;;0.90;;
65558;SDS011;52203;51.998;5.140;2024-02-21T04:54:25;1.25;;;0.73;;
65558;SDS011;52203;51.998;5.140;2024-02-21T04:56:50;2.00;;;0.95;;
65558;SDS011;52203;51.998;5.140;2024-02-21T04:59:16;2.33;;;1.00;;
65558;SDS011;52203;51.998;5.140;2024-02-21T05:01:42;1.80;;;0.90;;
65558;SDS011;52203;51.998;5.140;2024-02-21T05:04:07;2.72;;;0.98;;
65558;SDS011;52203;51.998;5.140;2024-02-21T05:06:39;1.30;;;0.68;;
65558;SDS011;52203;51.998;5.140;2024-02-21T05:09:08;1.50;;;0.70;;
65558;SDS011;52203;51.998;5.140;2024-02-21T05:11:34;3.15;;;0.95;;
65558;SDS011;52203;51.998;5.140;2024-02-21T05:14:03;2.58;;;1.02;;
65558;SDS011;52203;51.998;5.140;2024-02-21T05:16:29;1.75;;;0.80;;
65558;SDS011;52203;51.998;5.140;2024-02-21T05:18:56;2.38;;;0.90;;
65558;SDS011;52203;51.998;5.140;2024-02-21T05:21:25;2.20;;;1.00;;
65558;SDS011;52203;51.998;5.140;2024-02-21T05:23:51;0.82;;;0.65;;
65558;SDS011;52203;51.998;5.140;2024-02-21T05:26:20;1.45;;;0.90;;
65558;SDS011;52203;51.998;5.140;2024-02-21T05:28:47;1.63;;;0.90;;
65558;SDS011;52203;51.998;5.140;2024-02-21T05:31:12;2.25;;;0.98;;
65558;SDS011;52203;51.998;5.140;2024-02-21T05:33:39;2.28;;;0.90;;
65558;SDS011;52203;51.998;5.140;2024-02-21T05:36:05;2.90;;;1.00;;
65558;SDS011;52203;51.998;5.140;2024-02-21T05:38:30;2.33;;;1.08;;
65558;SDS011;52203;51.998;5.140;2024-02-21T05:40:56;2.30;;;0.90;;
65558;SDS011;52203;51.998;5.140;2024-02-21T05:43:22;2.25;;;0.80;;
65558;SDS011;52203;51.998;5.140;2024-02-21T05:45:47;1.25;;;0.80;;
65558;SDS011;52203;51.998;5.140;2024-02-21T05:48:15;1.63;;;0.88;;
65558;SDS011;52203;51.998;5.140;2024-02-21T05:50:41;2.88;;;0.93;;
65558;SDS011;52203;51.998;5.140;2024-02-21T05:53:10;2.63;;;1.40;;
65558;SDS011;52203;51.998;5.140;2024-02-21T05:55:38;1.38;;;0.90;;
65558;SDS011;52203;51.998;5.140;2024-02-21T05:58:04;1.75;;;0.93;;
65558;SDS011;52203;51.998;5.140;2024-02-21T06:00:31;2.50;;;0.90;;
65558;SDS011;52203;51.998;5.140;2024-02-21T06:02:56;2.78;;;0.90;;
65558;SDS011;52203;51.998;5.140;2024-02-21T06:05:22;1.75;;;0.80;;
65558;SDS011;52203;51.998;5.140;2024-02-21T06:07:48;1.75;;;0.80;;
65558;SDS011;52203;51.998;5.140;2024-02-21T06:10:13;1.60;;;0.98;;
65558;SDS011;52203;51.998;5.140;2024-02-21T06:12:39;1.48;;;0.77;;
65558;SDS011;52203;51.998;5.140;2024-02-21T06:15:04;3.33;;;1.15;;
65558;SDS011;52203;51.998;5.140;2024-02-21T06:17:31;2.90;;;1.10;;
65558;SDS011;52203;51.998;5.140;2024-02-21T06:19:56;1.35;;;0.90;;
65558;SDS011;52203;51.998;5.140;2024-02-21T06:22:22;2.53;;;0.95;;
65558;SDS011;52203;51.998;5.140;2024-02-21T06:24:47;2.72;;;1.00;;
65558;SDS011;52203;51.998;5.140;2024-02-21T06:27:19;2.10;;;0.73;;
65558;SDS011;52203;51.998;5.140;2024-02-21T06:29:44;2.97;;;1.00;;
65558;SDS011;52203;51.998;5.140;2024-02-21T06:32:10;2.22;;;1.05;;
65558;SDS011;52203;51.998;5.140;2024-02-21T06:34:35;2.38;;;1.20;;
65558;SDS011;52203;51.998;5.140;2024-02-21T06:37:01;1.92;;;1.05;;
65558;SDS011;52203;51.998;5.140;2024-02-21T06:39:27;2.25;;;1.00;;
65558;SDS011;52203;51.998;5.140;2024-02-21T06:41:54;2.00;;;0.90;;
65558;SDS011;52203;51.998;5.140;2024-02-21T06:44:19;3.50;;;1.27;;
65558;SDS011;52203;51.998;5.140;2024-02-21T06:46:46;3.17;;;1.13;;
65558;SDS011;52203;51.998;5.140;2024-02-21T06:49:11;1.80;;;1.10;;
65558;SDS011;52203;51.998;5.140;2024-02-21T06:51:44;2.40;;;1.08;;
65558;SDS011;52203;51.998;5.140;2024-02-21T06:54:09;4.18;;;1.20;;
65558;SDS011;52203;51.998;5.140;2024-02-21T06:56:35;2.88;;;1.30;;
65558;SDS011;52203;51.998;5.140;2024-02-21T06:59:01;1.63;;;1.02;;
65558;SDS011;52203;51.998;5.140;2024-02-21T07:01:28;3.17;;;1.10;;
65558;SDS011;52203;51.998;5.140;2024-02-21T07:03:54;1.70;;;0.90;;
65558;SDS011;52203;51.998;5.140;2024-02-21T07:06:20;1.52;;;1.00;;
65558;SDS011;52203;51.998;5.140;2024-02-21T07:08:45;2.13;;;1.10;;
65558;SDS011;52203;51.998;5.140;2024-02-21T07:11:11;2.28;;;0.90;;
65558;SDS011;52203;51.998;5.140;2024-02-21T07:13:36;2.53;;;1.20;;
65558;SDS011;52203;51.998;5.140;2024-02-21T07:16:02;3.05;;;1.38;;
65558;SDS011;52203;51.998;5.140;2024-02-21T07:18:27;3.65;;;1.40;;
65558;SDS011;52203;51.998;5.140;2024-02-21T07:20:53;2.00;;;0.98;;
65558;SDS011;52203;51.998;5.140;2024-02-21T07:23:18;3.67;;;1.23;;
65558;SDS011;52203;51.998;5.140;2024-02-21T07:25:44;2.08;;;1.10;;
65558;SDS011;52203;51.998;5.140;2024-02-21T07:28:10;4.57;;;1.85;;
65558;SDS011;52203;51.998;5.140;2024-02-21T07:30:36;2.00;;;1.10;;
65558;SDS011;52203;51.998;5.140;2024-02-21T07:33:02;1.98;;;0.90;;
65558;SDS011;52203;51.998;5.140;2024-02-21T07:35:27;2.92;;;1.15;;
65558;SDS011;52203;51.998;5.140;2024-02-21T07:37:53;1.88;;;1.10;;
65558;SDS011;52203;51.998;5.140;2024-02-21T07:40:22;3.20;;;1.10;;
65558;SDS011;52203;51.998;5.140;2024-02-21T07:42:48;3.75;;;1.25;;
65558;SDS011;52203;51.998;5.140;2024-02-21T07:45:14;2.97;;;1.15;;
65558;SDS011;52203;51.998;5.140;2024-02-21T07:47:39;2.22;;;1.00;;
65558;SDS011;52203;51.998;5.140;2024-02-21T07:50:05;3.22;;;1.17;;
65558;SDS011;52203;51.998;5.140;2024-02-21T07:52:34;3.40;;;1.20;;
65558;SDS011;52203;51.998;5.140;2024-02-21T07:54:59;2.33;;;1.10;;
65558;SDS011;52203;51.998;5.140;2024-02-21T07:57:28;1.95;;;0.95;;
65558;SDS011;52203;51.998;5.140;2024-02-21T07:59:54;3.33;;;1.25;;
65558;SDS011;52203;51.998;5.140;2024-02-21T08:02:19;2.13;;;0.98;;
65558;SDS011;52203;51.998;5.140;2024-02-21T08:04:45;2.38;;;1.25;;
65558;SDS011;52203;51.998;5.140;2024-02-21T08:07:10;3.47;;;1.30;;
65558;SDS011;52203;51.998;5.140;2024-02-21T08:09:36;3.28;;;1.10;;
65558;SDS011;52203;51.998;5.140;2024-02-21T08:12:03;2.35;;;1.00;;
65558;SDS011;52203;51.998;5.140;2024-02-21T08:14:29;3.15;;;1.17;;
65558;SDS011;52203;51.998;5.140;2024-02-21T08:16:55;3.03;;;1.13;;
65558;SDS011;52203;51.998;5.140;2024-02-21T08:19:21;3.08;;;1.40;;
65558;SDS011;52203;51.998;5.140;2024-02-21T08:21:50;2.58;;;1.30;;
65558;SDS011;52203;51.998;5.140;2024-02-21T08:24:16;3.28;;;1.30;;
65558;SDS011;52203;51.998;5.140;2024-02-21T08:26:42;2.00;;;1.17;;
65558;SDS011;52203;51.998;5.140;2024-02-21T08:29:09;3.15;;;1.40;;
65558;SDS011;52203;51.998;5.140;2024-02-21T08:31:35;3.08;;;1.38;;
65558;SDS011;52203;51.998;5.140;2024-02-21T08:34:01;3.90;;;1.38;;
65558;SDS011;52203;51.998;5.140;2024-02-21T08:36:29;4.63;;;1.50;;
65558;SDS011;52203;51.998;5.140;2024-02-21T08:38:59;2.67;;;1.30;;
65558;SDS011;52203;51.998;5.140;2024-02-21T08:41:25;4.20;;;1.38;;
65558;SDS011;52203;51.998;5.140;2024-02-21T08:43:51;4.10;;;1.75;;
65558;SDS011;52203;51.998;5.140;2024-02-21T08:46:19;3.70;;;1.48;;
65558;SDS011;52203;51.998;5.140;2024-02-21T08:48:46;4.63;;;1.40;;
65558;SDS011;52203;51.998;5.140;2024-02-21T08:51:14;5.88;;;1.63;;
65558;SDS011;52203;51.998;5.140;2024-02-21T08:53:40;4.13;;;1.45;;
65558;SDS011;52203;51.998;5.140;2024-02-21T08:56:06;3.80;;;1.42;;
65558;SDS011;52203;51.998;5.140;2024-02-21T08:58:35;4.18;;;1.75;;
65558;SDS011;52203;51.998;5.140;2024-02-21T09:01:02;5.47;;;2.13;;
65558;SDS011;52203;51.998;5.140;2024-02-21T09:03:30;7.65;;;2.10;;
65558;SDS011;52203;51.998;5.140;2024-02-21T09:05:59;7.40;;;2.20;;
65558;SDS011;52203;51.998;5.140;2024-02-21T09:08:25;6.60;;;2.20;;
65558;SDS011;52203;51.998;5.140;2024-02-21T09:10:51;10.00;;;2.58;;
65558;SDS011;52203;51.998;5.140;2024-02-21T09:13:17;8.80;;;2.55;;
65558;SDS011;52203;51.998;5.140;2024-02-21T09:15:43;7.85;;;2.75;;
65558;SDS011;52203;51.998;5.140;2024-02-21T09:18:09;9.68;;;2.78;;
65558;SDS011;52203;51.998;5.140;2024-02-21T09:20:34;15.05;;;3.53;;
65558;SDS011;52203;51.998;5.140;2024-02-21T09:23:00;16.02;;;3.60;;
65558;SDS011;52203;51.998;5.140;2024-02-21T09:25:26;16.15;;;4.10;;
65558;SDS011;52203;51.998;5.140;2024-02-21T09:27:53;15.98;;;3.90;;
65558;SDS011;52203;51.998;5.140;2024-02-21T09:30:19;15.70;;;3.10;;
65558;SDS011;52203;51.998;5.140;2024-02-21T09:32:45;11.45;;;3.10;;
65558;SDS011;52203;51.998;5.140;2024-02-21T09:35:11;10.80;;;3.15;;
65558;SDS011;52203;51.998;5.140;2024-02-21T09:37:38;10.38;;;2.67;;
65558;SDS011;52203;51.998;5.140;2024-02-21T09:40:04;12.35;;;3.40;;
65558;SDS011;52203;51.998;5.140;2024-02-21T09:47:50;10.90;;;2.72;;
65558;SDS011;52203;51.998;5.140;2024-02-21T09:50:22;17.60;;;3.15;;
65558;SDS011;52203;51.998;5.140;2024-02-21T09:52:49;9.73;;;3.15;;
65558;SDS011;52203;51.998;5.140;2024-02-21T09:55:17;10.20;;;2.72;;
65558;SDS011;52203;51.998;5.140;2024-02-21T09:57:44;15.07;;;3.25;;
65558;SDS011;52203;51.998;5.140;2024-02-21T10:00:10;11.18;;;3.13;;
65558;SDS011;52203;51.998;5.140;2024-02-21T10:02:38;9.27;;;2.83;;
65558;SDS011;52203;51.998;5.140;2024-02-21T10:05:04;11.43;;;2.95;;
65558;SDS011;52203;51.998;5.140;2024-02-21T10:07:33;12.68;;;2.47;;
65558;SDS011;52203;51.998;5.140;2024-02-21T10:10:02;13.38;;;3.40;;
65558;SDS011;52203;51.998;5.140;2024-02-21T10:12:28;7.60;;;2.63;;
65558;SDS011;52203;51.998;5.140;2024-02-21T10:15:04;11.93;;;3.22;;
65558;SDS011;52203;51.998;5.140;2024-02-21T10:17:31;9.63;;;2.47;;
65558;SDS011;52203;51.998;5.140;2024-02-21T10:20:07;9.65;;;2.80;;
65558;SDS011;52203;51.998;5.140;2024-02-21T10:22:34;8.57;;;2.60;;
65558;SDS011;52203;51.998;5.140;2024-02-21T10:25:11;8.90;;;3.00;;
65558;SDS011;52203;51.998;5.140;2024-02-21T10:27:40;6.50;;;2.58;;
65558;SDS011;52203;51.998;5.140;2024-02-21T10:30:13;8.52;;;2.65;;
65558;SDS011;52203;51.998;5.140;2024-02-21T10:35:36;11.55;;;3.00;;
65558;SDS011;52203;51.998;5.140;2024-02-21T10:38:02;7.90;;;2.42;;
65558;SDS011;52203;51.998;5.140;2024-02-21T10:40:29;9.85;;;2.90;;
65558;SDS011;52203;51.998;5.140;2024-02-21T10:42:57;9.18;;;3.08;;
65558;SDS011;52203;51.998;5.140;2024-02-21T10:45:35;7.50;;;2.85;;
65558;SDS011;52203;51.998;5.140;2024-02-21T10:50:53;6.25;;;2.65;;
65558;SDS011;52203;51.998;5.140;2024-02-21T10:53:41;10.50;;;3.05;;
65558;SDS011;52203;51.998;5.140;2024-02-21T10:58:54;8.52;;;2.70;;
65558;SDS011;52203;51.998;5.140;2024-02-21T11:01:23;6.85;;;2.47;;
65558;SDS011;52203;51.998;5.140;2024-02-21T11:03:53;8.18;;;3.13;;
65558;SDS011;52203;51.998;5.140;2024-02-21T11:06:20;7.75;;;3.08;;
65558;SDS011;52203;51.998;5.140;2024-02-21T11:08:47;9.15;;;2.70;;
65558;SDS011;52203;51.998;5.140;2024-02-21T11:11:14;7.32;;;2.95;;
65558;SDS011;52203;51.998;5.140;2024-02-21T11:13:43;7.47;;;2.50;;
65558;SDS011;52203;51.998;5.140;2024-02-21T11:16:11;7.68;;;2.80;;
65558;SDS011;52203;51.998;5.140;2024-02-21T11:18:46;6.10;;;3.00;;
65558;SDS011;52203;51.998;5.140;2024-02-21T11:21:12;9.75;;;2.90;;
65558;SDS011;52203;51.998;5.140;2024-02-21T11:23:38;7.55;;;2.65;;
65558;SDS011;52203;51.998;5.140;2024-02-21T11:26:07;7.45;;;2.38;;
65558;SDS011;52203;51.998;5.140;2024-02-21T11:28:33;6.80;;;2.92;;
65558;SDS011;52203;51.998;5.140;2024-02-21T11:33:36;4.90;;;2.40;;
65558;SDS011;52203;51.998;5.140;2024-02-21T11:36:10;5.65;;;2.28;;
65558;SDS011;52203;51.998;5.140;2024-02-21T11:38:36;6.63;;;2.50;;
65558;SDS011;52203;51.998;5.140;2024-02-21T11:41:01;6.10;;;2.67;;
65558;SDS011;52203;51.998;5.140;2024-02-21T11:43:27;6.13;;;2.63;;
65558;SDS011;52203;51.998;5.140;2024-02-21T11:46:02;6.50;;;2.22;;
65558;SDS011;52203;51.998;5.140;2024-02-21T11:48:29;5.90;;;2.50;;
65558;SDS011;52203;51.998;5.140;2024-02-21T11:50:56;9.23;;;3.05;;
65558;SDS011;52203;51.998;5.140;2024-02-21T11:53:22;7.75;;;3.00;;
65558;SDS011;52203;51.998;5.140;2024-02-21T11:55:48;7.95;;;2.60;;
65558;SDS011;52203;51.998;5.140;2024-02-21T11:58:15;8.40;;;2.53;;
65558;SDS011;52203;51.998;5.140;2024-02-21T12:00:41;5.47;;;2.40;;
65558;SDS011;52203;51.998;5.140;2024-02-21T12:03:06;6.90;;;2.70;;
65558;SDS011;52203;51.998;5.140;2024-02-21T12:05:33;5.38;;;2.30;;
65558;SDS011;52203;51.998;5.140;2024-02-21T12:08:00;9.10;;;2.58;;
65558;SDS011;52203;51.998;5.140;2024-02-21T12:10:29;6.13;;;2.58;;
65558;SDS011;52203;51.998;5.140;2024-02-21T12:13:04;5.68;;;2.50;;
65558;SDS011;52203;51.998;5.140;2024-02-21T12:15:32;6.90;;;2.83;;
65558;SDS011;52203;51.998;5.140;2024-02-21T12:17:57;5.18;;;2.50;;
65558;SDS011;52203;51.998;5.140;2024-02-21T12:20:25;7.40;;;2.70;;
65558;SDS011;52203;51.998;5.140;2024-02-21T12:22:51;6.75;;;2.45;;
65558;SDS011;52203;51.998;5.140;2024-02-21T12:25:18;5.60;;;2.70;;
65558;SDS011;52203;51.998;5.140;2024-02-21T12:27:45;6.68;;;2.05;;
65558;SDS011;52203;51.998;5.140;2024-02-21T12:30:11;6.43;;;2.30;;
65558;SDS011;52203;51.998;5.140;2024-02-21T12:32:37;6.55;;;2.40;;
65558;SDS011;52203;51.998;5.140;2024-02-21T12:35:03;5.38;;;2.40;;
65558;SDS011;52203;51.998;5.140;2024-02-21T12:37:29;5.22;;;2.58;;
65558;SDS011;52203;51.998;5.140;2024-02-21T12:39:54;4.80;;;2.22;;
65558;SDS011;52203;51.998;5.140;2024-02-21T12:42:20;4.72;;;2.30;;
65558;SDS011;52203;51.998;5.140;2024-02-21T12:44:46;7.63;;;2.58;;
65558;SDS011;52203;51.998;5.140;2024-02-21T12:47:14;5.75;;;2.35;;
65558;SDS011;52203;51.998;5.140;2024-02-21T12:49:40;3.95;;;2.08;;
65558;SDS011;52203;51.998;5.140;2024-02-21T12:52:06;4.53;;;2.10;;
65558;SDS011;52203;51.998;5.140;2024-02-21T12:54:31;6.60;;;2.30;;
65558;SDS011;52203;51.998;5.140;2024-02-21T12:56:57;6.03;;;2.50;;
65558;SDS011;52203;51.998;5.140;2024-02-21T12:59:23;5.50;;;2.28;;
65558;SDS011;52203;51.998;5.140;2024-02-21T13:01:48;5.53;;;2.10;;
65558;SDS011;52203;51.998;5.140;2024-02-21T13:04:14;5.47;;;2.30;;
65558;SDS011;52203;51.998;5.140;2024-02-21T13:06:40;5.63;;;2.05;;
65558;SDS011;52203;51.998;5.140;2024-02-21T13:09:05;4.00;;;2.17;;
65558;SDS011;52203;51.998;5.140;2024-02-21T13:11:34;3.72;;;2.05;;
65558;SDS011;52203;51.998;5.140;2024-02-21T13:14:00;4.95;;;2.33;;
65558;SDS011;52203;51.998;5.140;2024-02-21T13:16:25;3.40;;;2.08;;
65558;SDS011;52203;51.998;5.140;2024-02-21T13:18:52;4.47;;;2.17;;
65558;SDS011;52203;51.998;5.140;2024-02-21T13:21:17;5.50;;;2.35;;
65558;SDS011;52203;51.998;5.140;2024-02-21T13:23:43;4.60;;;2.00;;
65558;SDS011;52203;51.998;5.140;2024-02-21T13:26:12;5.53;;;2.20;;
65558;SDS011;52203;51.998;5.140;2024-02-21T13:28:37;4.75;;;2.30;;
65558;SDS011;52203;51.998;5.140;2024-02-21T13:31:03;5.38;;;2.08;;
65558;SDS011;52203;51.998;5.140;2024-02-21T13:33:29;6.28;;;2.25;;
65558;SDS011;52203;51.998;5.140;2024-02-21T13:35:55;5.07;;;1.92;;
65558;SDS011;52203;51.998;5.140;2024-02-21T13:38:20;3.42;;;1.90;;
65558;SDS011;52203;51.998;5.140;2024-02-21T13:40:46;3.42;;;1.90;;
65558;SDS011;52203;51.998;5.140;2024-02-21T13:43:12;5.43;;;2.10;;
65558;SDS011;52203;51.998;5.140;2024-02-21T13:45:38;6.47;;;2.10;;
65558;SDS011;52203;51.998;5.140;2024-02-21T13:48:03;3.92;;;1.80;;
65558;SDS011;52203;51.998;5.140;2024-02-21T13:50:31;3.40;;;1.80;;
65558;SDS011;52203;51.998;5.140;2024-02-21T13:52:59;4.65;;;2.20;;
65558;SDS011;52203;51.998;5.140;2024-02-21T13:55:26;4.43;;;1.90;;
65558;SDS011;52203;51.998;5.140;2024-02-21T13:57:51;4.25;;;1.98;;
65558;SDS011;52203;51.998;5.140;2024-02-21T14:00:17;4.30;;;1.90;;
65558;SDS011;52203;51.998;5.140;2024-02-21T14:02:44;5.00;;;2.20;;
65558;SDS011;52203;51.998;5.140;2024-02-21T14:05:09;4.78;;;1.90;;
65558;SDS011;52203;51.998;5.140;2024-02-21T14:07:35;4.53;;;1.90;;
65558;SDS011;52203;51.998;5.140;2024-02-21T14:10:01;5.60;;;2.03;;
65558;SDS011;52203;51.998;5.140;2024-02-21T14:12:28;4.88;;;2.10;;
65558;SDS011;52203;51.998;5.140;2024-02-21T14:14:54;3.33;;;1.90;;
65558;SDS011;52203;51.998;5.140;2024-02-21T14:17:24;13.32;;;2.25;;
65558;SDS011;52203;51.998;5.140;2024-02-21T14:19:51;4.38;;;1.75;;
65558;SDS011;52203;51.998;5.140;2024-02-21T14:22:17;4.70;;;1.80;;
65558;SDS011;52203;51.998;5.140;2024-02-21T14:24:42;3.88;;;2.05;;
65558;SDS011;52203;51.998;5.140;2024-02-21T14:27:08;4.63;;;1.88;;
65558;SDS011;52203;51.998;5.140;2024-02-21T14:29:34;4.70;;;1.60;;
65558;SDS011;52203;51.998;5.140;2024-02-21T14:31:59;4.22;;;2.45;;
65558;SDS011;52203;51.998;5.140;2024-02-21T14:34:25;3.92;;;1.73;;
65558;SDS011;52203;51.998;5.140;2024-02-21T14:36:51;3.28;;;1.70;;
65558;SDS011;52203;51.998;5.140;2024-02-21T14:39:17;3.53;;;1.70;;
65558;SDS011;52203;51.998;5.140;2024-02-21T14:41:42;3.72;;;1.70;;
65558;SDS011;52203;51.998;5.140;2024-02-21T14:44:08;4.50;;;1.98;;
65558;SDS011;52203;51.998;5.140;2024-02-21T14:46:35;3.88;;;1.80;;
65558;SDS011;52203;51.998;5.140;2024-02-21T14:49:00;4.90;;;2.05;;
65558;SDS011;52203;51.998;5.140;2024-02-21T14:51:26;3.60;;;1.67;;
65558;SDS011;52203;51.998;5.140;2024-02-21T14:53:52;4.60;;;2.00;;
65558;SDS011;52203;51.998;5.140;2024-02-21T14:56:17;4.03;;;2.05;;
65558;SDS011;52203;51.998;5.140;2024-02-21T14:58:43;4.05;;;1.77;;
65558;SDS011;52203;51.998;5.140;2024-02-21T15:01:12;3.22;;;1.88;;